sensor_id;sensor_type;location;lat;lon;timestamp;pressure;altitude;pressure_sealevel;temperature;humidity
13068;BME280;6600;51.362;6.686;2023-12-20T00:00:59;101103.88;;;7.88;100.00
13068;BME280;6600;51.362;6.686;2023-12-20T00:03:24;101109.59;;;7.85;100.00
13068;BME280;6600;51.362;6.686;2023-12-20T00:05:50;101115.63;;;7.72;100.00
13068;BME280;6600;51.362;6.686;2023-12-20T00:08:16;101107.16;;;7.69;100.00
13068;BME280;6600;51.362;6.686;2023-12-20T00:10:42;101108.38;;;7.51;100.00
13068;BME280;6600;51.362;6.686;2023-12-20T00:13:08;101112.06;;;7.50;100.00
13068;BME280;6600;51.362;6.686;2023-12-20T00:15:34;101116.84;;;7.40;100.00
13068;BME280;6600;51.362;6.686;2023-12-20T00:17:59;101126.97;;;7.30;100.00
13068;BME280;6600;51.362;6.686;2023-12-20T00:20:25;101129.72;;;7.22;100.00
13068;BME280;6600;51.362;6.686;2023-12-20T00:22:51;101128.25;;;7.20;100.00
13068;BME280;6600;51.362;6.686;2023-12-20T00:25:16;101134.13;;;7.15;100.00
13068;BME280;6600;51.362;6.686;2023-12-20T00:27:41;101127.50;;;7.11;100.00
13068;BME280;6600;51.362;6.686;2023-12-20T00:30:07;101129.53;;;7.09;100.00
13068;BME280;6600;51.362;6.686;2023-12-20T00:32:35;101133.56;;;7.05;100.00
13068;BME280;6600;51.362;6.686;2023-12-20T00:35:00;101129.34;;;6.96;100.00
13068;BME280;6600;51.362;6.686;2023-12-20T00:37:25;101122.34;;;6.95;100.00
13068;BME280;6600;51.362;6.686;2023-12-20T00:39:51;101128.97;;;6.99;100.00
13068;BME280;6600;51.362;6.686;2023-12-20T00:42:16;101130.28;;;7.03;100.00
13068;BME280;6600;51.362;6.686;2023-12-20T00:44:41;101134.75;;;7.02;100.00
13068;BME280;6600;51.362;6.686;2023-12-20T00:47:07;101139.81;;;7.12;100.00
13068;BME280;6600;51.362;6.686;2023-12-20T00:49:32;101147.38;;;7.23;100.00
13068;BME280;6600;51.362;6.686;2023-12-20T00:51:57;101148.91;;;7.32;100.00
13068;BME280;6600;51.362;6.686;2023-12-20T00:54:23;101148.47;;;7.43;100.00
13068;BME280;6600;51.362;6.686;2023-12-20T00:56:48;101157.94;;;7.46;100.00
13068;BME280;6600;51.362;6.686;2023-12-20T00:59:16;101151.06;;;7.51;100.00
13068;BME280;6600;51.362;6.686;2023-12-20T01:01:41;101148.47;;;7.43;100.00
13068;BME280;6600;51.362;6.686;2023-12-20T01:04:07;101146.53;;;7.37;100.00
13068;BME280;6600;51.362;6.686;2023-12-20T01:06:32;101149.59;;;7.34;100.00
13068;BME280;6600;51.362;6.686;2023-12-20T01:08:58;101150.22;;;7.36;100.00
13068;BME280;6600;51.362;6.686;2023-12-20T01:11:23;101144.88;;;7.36;100.00
13068;BME280;6600;51.362;6.686;2023-12-20T01:13:48;101159.50;;;7.40;100.00
13068;BME280;6600;51.362;6.686;2023-12-20T01:16:14;101153.81;;;7.43;100.00
13068;BME280;6600;51.362;6.686;2023-12-20T01:18:39;101146.44;;;7.45;100.00
13068;BME280;6600;51.362;6.686;2023-12-20T01:21:04;101147.72;;;7.49;100.00
13068;BME280;6600;51.362;6.686;2023-12-20T01:23:30;101153.06;;;7.49;100.00
13068;BME280;6600;51.362;6.686;2023-12-20T01:25:56;101163.09;;;7.47;100.00
13068;BME280;6600;51.362;6.686;2023-12-20T01:28:21;101169.78;;;7.43;100.00
13068;BME280;6600;51.362;6.686;2023-12-20T01:30:46;101168.59;;;7.31;100.00
13068;BME280;6600;51.362;6.686;2023-12-20T01:33:12;101166.66;;;7.25;100.00
13068;BME280;6600;51.362;6.686;2023-12-20T01:35:37;101168.75;;;7.15;100.00
13068;BME280;6600;51.362;6.686;2023-12-20T01:38:03;101178.56;;;7.00;100.00
13068;BME280;6600;51.362;6.686;2023-12-20T01:40:28;101178.00;;;6.90;100.00
13068;BME280;6600;51.362;6.686;2023-12-20T01:43:07;101184.03;;;6.84;100.00
13068;BME280;6600;51.362;6.686;2023-12-20T01:45:33;101190.63;;;6.73;100.00
13068;BME280;6600;51.362;6.686;2023-12-20T01:47:59;101188.50;;;6.69;100.00
13068;BME280;6600;51.362;6.686;2023-12-20T01:50:25;101197.06;;;6.56;100.00
13068;BME280;6600;51.362;6.686;2023-12-20T01:52:51;101176.50;;;6.50;100.00
13068;BME280;6600;51.362;6.686;2023-12-20T01:55:20;101171.41;;;6.40;100.00
13068;BME280;6600;51.362;6.686;2023-12-20T01:57:46;101172.47;;;6.31;100.00
13068;BME280;6600;51.362;6.686;2023-12-20T02:00:13;101171.34;;;6.26;100.00
13068;BME280;6600;51.362;6.686;2023-12-20T02:02:40;101179.19;;;6.19;100.00
13068;BME280;6600;51.362;6.686;2023-12-20T02:05:06;101188.84;;;6.20;100.00
13068;BME280;6600;51.362;6.686;2023-12-20T02:07:32;101189.97;;;6.26;100.00
13068;BME280;6600;51.362;6.686;2023-12-20T02:09:59;101187.94;;;6.28;100.00
13068;BME280;6600;51.362;6.686;2023-12-20T02:12:24;101185.13;;;6.29;100.00
13068;BME280;6600;51.362;6.686;2023-12-20T02:14:49;101173.00;;;6.27;100.00
13068;BME280;6600;51.362;6.686;2023-12-20T02:17:15;101164.53;;;6.23;100.00
13068;BME280;6600;51.362;6.686;2023-12-20T02:19:41;101169.56;;;6.18;100.00
13068;BME280;6600;51.362;6.686;2023-12-20T02:22:10;101177.06;;;6.15;100.00
13068;BME280;6600;51.362;6.686;2023-12-20T02:24:36;101178.59;;;6.09;100.00
13068;BME280;6600;51.362;6.686;2023-12-20T02:27:01;101179.91;;;6.13;100.00
13068;BME280;6600;51.362;6.686;2023-12-20T02:29:27;101184.88;;;6.16;100.00
13068;BME280;6600;51.362;6.686;2023-12-20T02:31:52;101181.38;;;6.16;100.00
13068;BME280;6600;51.362;6.686;2023-12-20T02:34:18;101193.22;;;6.13;100.00
13068;BME280;6600;51.362;6.686;2023-12-20T02:36:43;101190.91;;;6.10;100.00
13068;BME280;6600;51.362;6.686;2023-12-20T02:39:08;101187.28;;;6.03;100.00
13068;BME280;6600;51.362;6.686;2023-12-20T02:41:34;101171.97;;;6.05;100.00
13068;BME280;6600;51.362;6.686;2023-12-20T02:44:00;101179.31;;;6.03;100.00
13068;BME280;6600;51.362;6.686;2023-12-20T02:46:25;101192.63;;;5.95;100.00
13068;BME280;6600;51.362;6.686;2023-12-20T02:48:50;101189.34;;;5.93;100.00
13068;BME280;6600;51.362;6.686;2023-12-20T02:51:15;101188.03;;;5.89;100.00
13068;BME280;6600;51.362;6.686;2023-12-20T02:53:41;101182.53;;;5.82;100.00
13068;BME280;6600;51.362;6.686;2023-12-20T02:56:06;101189.84;;;5.80;100.00
13068;BME280;6600;51.362;6.686;2023-12-20T02:58:31;101185.09;;;5.68;100.00
13068;BME280;6600;51.362;6.686;2023-12-20T03:00:57;101183.41;;;5.67;100.00
13068;BME280;6600;51.362;6.686;2023-12-20T03:03:22;101193.69;;;5.70;100.00
13068;BME280;6600;51.362;6.686;2023-12-20T03:05:47;101189.84;;;5.80;100.00
13068;BME280;6600;51.362;6.686;2023-12-20T03:08:13;101190.31;;;5.84;100.00
13068;BME280;6600;51.362;6.686;2023-12-20T03:10:38;101194.16;;;5.89;100.00
13068;BME280;6600;51.362;6.686;2023-12-20T03:13:03;101186.13;;;5.97;100.00
13068;BME280;6600;51.362;6.686;2023-12-20T03:15:29;101194.44;;;6.02;100.00
13068;BME280;6600;51.362;6.686;2023-12-20T03:17:54;101176.09;;;6.07;100.00
13068;BME280;6600;51.362;6.686;2023-12-20T03:20:19;101181.06;;;6.10;100.00
13068;BME280;6600;51.362;6.686;2023-12-20T03:22:45;101175.44;;;6.14;100.00
13068;BME280;6600;51.362;6.686;2023-12-20T03:25:10;101175.06;;;6.17;100.00
13068;BME280;6600;51.362;6.686;2023-12-20T03:27:38;101180.50;;;6.23;100.00
13068;BME280;6600;51.362;6.686;2023-12-20T03:30:04;101179.84;;;6.21;100.00
13068;BME280;6600;51.362;6.686;2023-12-20T03:32:30;101176.53;;;6.19;100.00
13068;BME280;6600;51.362;6.686;2023-12-20T03:34:55;101185.34;;;6.20;100.00
13068;BME280;6600;51.362;6.686;2023-12-20T03:37:21;101178.22;;;6.20;100.00
13068;BME280;6600;51.362;6.686;2023-12-20T03:39:47;101179.56;;;6.16;100.00
13068;BME280;6600;51.362;6.686;2023-12-20T03:42:12;101173.75;;;6.13;100.00
13068;BME280;6600;51.362;6.686;2023-12-20T03:44:41;101167.59;;;6.12;100.00
13068;BME280;6600;51.362;6.686;2023-12-20T03:47:06;101168.66;;;6.03;100.00
13068;BME280;6600;51.362;6.686;2023-12-20T03:49:31;101165.69;;;5.98;100.00
13068;BME280;6600;51.362;6.686;2023-12-20T03:51:57;101168.66;;;6.03;100.00
13068;BME280;6600;51.362;6.686;2023-12-20T03:54:22;101167.63;;;6.04;100.00
13068;BME280;6600;51.362;6.686;2023-12-20T03:56:47;101165.34;;;6.01;100.00
13068;BME280;6600;51.362;6.686;2023-12-20T03:59:13;101173.84;;;5.96;100.00
13068;BME280;6600;51.362;6.686;2023-12-20T04:01:43;101176.69;;;5.95;100.00
13068;BME280;6600;51.362;6.686;2023-12-20T04:04:08;101172.22;;;5.87;100.00
13068;BME280;6600;51.362;6.686;2023-12-20T04:06:34;101166.91;;;5.79;100.00
13068;BME280;6600;51.362;6.686;2023-12-20T04:08:59;101167.78;;;5.72;100.00
13068;BME280;6600;51.362;6.686;2023-12-20T04:11:24;101160.16;;;5.69;100.00
13068;BME280;6600;51.362;6.686;2023-12-20T04:13:50;101157.66;;;5.67;100.00
13068;BME280;6600;51.362;6.686;2023-12-20T04:16:15;101158.19;;;5.63;100.00
13068;BME280;6600;51.362;6.686;2023-12-20T04:18:41;101149.22;;;5.55;100.00
13068;BME280;6600;51.362;6.686;2023-12-20T04:21:06;101159.84;;;5.55;100.00
13068;BME280;6600;51.362;6.686;2023-12-20T04:23:32;101156.56;;;5.53;100.00
13068;BME280;6600;51.362;6.686;2023-12-20T04:25:57;101168.84;;;5.54;100.00
13068;BME280;6600;51.362;6.686;2023-12-20T04:28:22;101165.03;;;5.57;100.00
13068;BME280;6600;51.362;6.686;2023-12-20T04:30:48;101160.22;;;5.52;100.00
13068;BME280;6600;51.362;6.686;2023-12-20T04:33:13;101164.69;;;5.52;100.00
13068;BME280;6600;51.362;6.686;2023-12-20T04:35:39;101167.53;;;5.50;100.00
13068;BME280;6600;51.362;6.686;2023-12-20T04:38:06;101176.50;;;5.49;100.00
13068;BME280;6600;51.362;6.686;2023-12-20T04:40:31;101175.66;;;5.49;100.00
13068;BME280;6600;51.362;6.686;2023-12-20T04:42:56;101177.00;;;5.53;100.00
13068;BME280;6600;51.362;6.686;2023-12-20T04:45:22;101176.50;;;5.49;100.00
13068;BME280;6600;51.362;6.686;2023-12-20T04:47:48;101173.19;;;5.47;100.00
13068;BME280;6600;51.362;6.686;2023-12-20T04:50:14;101183.00;;;5.47;100.00
13068;BME280;6600;51.362;6.686;2023-12-20T04:52:39;101183.16;;;5.45;100.00
13068;BME280;6600;51.362;6.686;2023-12-20T04:55:05;101186.84;;;5.44;100.00
13068;BME280;6600;51.362;6.686;2023-12-20T04:57:30;101171.75;;;5.37;100.00
13068;BME280;6600;51.362;6.686;2023-12-20T04:59:56;101170.56;;;5.31;100.00
13068;BME280;6600;51.362;6.686;2023-12-20T05:02:21;101169.28;;;5.27;100.00
13068;BME280;6600;51.362;6.686;2023-12-20T05:04:46;101173.56;;;5.28;100.00
13068;BME280;6600;51.362;6.686;2023-12-20T05:07:11;101172.25;;;5.24;100.00
13068;BME280;6600;51.362;6.686;2023-12-20T05:09:37;101176.41;;;5.27;100.00
13068;BME280;6600;51.362;6.686;2023-12-20T05:12:02;101166.75;;;5.34;100.00
13068;BME280;6600;51.362;6.686;2023-12-20T05:14:28;101167.25;;;5.37;100.00
13068;BME280;6600;51.362;6.686;2023-12-20T05:16:53;101171.38;;;5.40;100.00
13068;BME280;6600;51.362;6.686;2023-12-20T05:19:18;101168.53;;;5.49;100.00
13068;BME280;6600;51.362;6.686;2023-12-20T05:21:44;101164.84;;;5.58;100.00
13068;BME280;6600;51.362;6.686;2023-12-20T05:24:09;101172.63;;;5.68;100.00
13068;BME280;6600;51.362;6.686;2023-12-20T05:26:34;101172.91;;;5.73;100.00
13068;BME280;6600;51.362;6.686;2023-12-20T05:29:00;101174.75;;;5.73;100.00
13068;BME280;6600;51.362;6.686;2023-12-20T05:31:25;101169.09;;;5.76;100.00
13068;BME280;6600;51.362;6.686;2023-12-20T05:33:50;101163.44;;;5.79;100.00
13068;BME280;6600;51.362;6.686;2023-12-20T05:36:16;101143.28;;;5.84;100.00
13068;BME280;6600;51.362;6.686;2023-12-20T05:38:41;101153.59;;;5.87;100.00
13068;BME280;6600;51.362;6.686;2023-12-20T05:41:06;101150.44;;;5.92;100.00
13068;BME280;6600;51.362;6.686;2023-12-20T05:43:32;101153.69;;;6.02;100.00
13068;BME280;6600;51.362;6.686;2023-12-20T05:45:58;101143.91;;;6.02;100.00
13068;BME280;6600;51.362;6.686;2023-12-20T05:48:23;101154.34;;;6.04;100.00
13068;BME280;6600;51.362;6.686;2023-12-20T05:50:48;101144.19;;;6.07;100.00
13068;BME280;6600;51.362;6.686;2023-12-20T05:53:14;101143.03;;;6.10;100.00
13068;BME280;6600;51.362;6.686;2023-12-20T05:55:39;101148.00;;;6.13;100.00
13068;BME280;6600;51.362;6.686;2023-12-20T05:58:05;101149.63;;;6.14;100.00
13068;BME280;6600;51.362;6.686;2023-12-20T06:00:30;101151.28;;;6.15;100.00
13068;BME280;6600;51.362;6.686;2023-12-20T06:02:56;101152.28;;;6.14;100.00
13068;BME280;6600;51.362;6.686;2023-12-20T06:05:21;101149.25;;;6.17;100.00
13068;BME280;6600;51.362;6.686;2023-12-20T06:07:46;101150.94;;;6.18;100.00
13068;BME280;6600;51.362;6.686;2023-12-20T06:10:13;101170.56;;;6.17;100.00
13068;BME280;6600;51.362;6.686;2023-12-20T06:12:39;101166.91;;;6.18;100.00
13068;BME280;6600;51.362;6.686;2023-12-20T06:15:04;101173.53;;;6.22;100.00
13068;BME280;6600;51.362;6.686;2023-12-20T06:17:31;101183.81;;;6.25;100.00
13068;BME280;6600;51.362;6.686;2023-12-20T06:19:56;101178.50;;;6.25;100.00
13068;BME280;6600;51.362;6.686;2023-12-20T06:22:22;101170.34;;;6.27;100.00
13068;BME280;6600;51.362;6.686;2023-12-20T06:24:47;101177.16;;;6.29;100.00
13068;BME280;6600;51.362;6.686;2023-12-20T06:27:12;101170.81;;;6.30;100.00
13068;BME280;6600;51.362;6.686;2023-12-20T06:29:38;101180.28;;;6.33;100.00
13068;BME280;6600;51.362;6.686;2023-12-20T06:32:04;101168.44;;;6.35;100.00
13068;BME280;6600;51.362;6.686;2023-12-20T06:34:29;101171.09;;;6.35;100.00
13068;BME280;6600;51.362;6.686;2023-12-20T06:36:54;101164.44;;;6.39;100.00
13068;BME280;6600;51.362;6.686;2023-12-20T06:39:20;101163.25;;;6.42;100.00
13068;BME280;6600;51.362;6.686;2023-12-20T06:41:45;101167.72;;;6.41;100.00
13068;BME280;6600;51.362;6.686;2023-12-20T06:44:11;101163.59;;;6.39;100.00
13068;BME280;6600;51.362;6.686;2023-12-20T06:46:36;101165.75;;;6.43;100.00
13068;BME280;6600;51.362;6.686;2023-12-20T06:49:01;101176.03;;;6.46;100.00
13068;BME280;6600;51.362;6.686;2023-12-20T06:51:27;101172.00;;;6.50;100.00
13068;BME280;6600;51.362;6.686;2023-12-20T06:53:52;101177.34;;;6.50;100.00
13068;BME280;6600;51.362;6.686;2023-12-20T06:56:18;101166.31;;;6.53;100.00
13068;BME280;6600;51.362;6.686;2023-12-20T06:58:43;101166.31;;;6.53;100.00
13068;BME280;6600;51.362;6.686;2023-12-20T07:01:13;101158.63;;;6.58;100.00
13068;BME280;6600;51.362;6.686;2023-12-20T07:03:38;101149.81;;;6.58;100.00
13068;BME280;6600;51.362;6.686;2023-12-20T07:06:04;101163.59;;;6.62;100.00
13068;BME280;6600;51.362;6.686;2023-12-20T07:08:29;101165.25;;;6.63;100.00
13068;BME280;6600;51.362;6.686;2023-12-20T07:10:54;101179.91;;;6.58;100.00
13068;BME280;6600;51.362;6.686;2023-12-20T07:13:19;101170.09;;;6.59;100.00
13068;BME280;6600;51.362;6.686;2023-12-20T07:15:45;101169.25;;;6.58;100.00
13068;BME280;6600;51.362;6.686;2023-12-20T07:18:10;101162.88;;;6.68;100.00
13068;BME280;6600;51.362;6.686;2023-12-20T07:20:35;101161.22;;;6.67;100.00
13068;BME280;6600;51.362;6.686;2023-12-20T07:23:01;101169.88;;;6.69;100.00
13068;BME280;6600;51.362;6.686;2023-12-20T07:25:26;101158.19;;;6.70;100.00
13068;BME280;6600;51.362;6.686;2023-12-20T07:27:51;101152.34;;;6.74;100.00
13068;BME280;6600;51.362;6.686;2023-12-20T07:30:17;101159.34;;;6.75;100.00
13068;BME280;6600;51.362;6.686;2023-12-20T07:32:42;101158.50;;;6.75;100.00
13068;BME280;6600;51.362;6.686;2023-12-20T07:35:08;101159.81;;;6.79;100.00
13068;BME280;6600;51.362;6.686;2023-12-20T07:37:33;101160.44;;;6.81;100.00
13068;BME280;6600;51.362;6.686;2023-12-20T07:39:58;101149.41;;;6.84;100.00
13068;BME280;6600;51.362;6.686;2023-12-20T07:42:24;101171.03;;;6.89;100.00
13068;BME280;6600;51.362;6.686;2023-12-20T07:44:49;101160.38;;;6.89;100.00
13068;BME280;6600;51.362;6.686;2023-12-20T07:47:14;101175.16;;;6.91;100.00
13068;BME280;6600;51.362;6.686;2023-12-20T07:49:43;101172.84;;;6.88;100.00
13068;BME280;6600;51.362;6.686;2023-12-20T07:52:08;101176.81;;;6.92;100.00
13068;BME280;6600;51.362;6.686;2023-12-20T07:54:34;101168.16;;;6.90;100.00
13068;BME280;6600;51.362;6.686;2023-12-20T07:56:59;101169.00;;;6.91;100.00
13068;BME280;6600;51.362;6.686;2023-12-20T07:59:25;101174.31;;;6.91;100.00
13068;BME280;6600;51.362;6.686;2023-12-20T08:01:50;101174.91;;;7.01;100.00
13068;BME280;6600;51.362;6.686;2023-12-20T08:04:15;101176.56;;;7.02;100.00
13068;BME280;6600;51.362;6.686;2023-12-20T08:06:41;101165.06;;;7.01;100.00
13068;BME280;6600;51.362;6.686;2023-12-20T08:09:06;101169.19;;;7.04;100.00
13068;BME280;6600;51.362;6.686;2023-12-20T08:11:31;101172.22;;;7.01;100.00
13068;BME280;6600;51.362;6.686;2023-12-20T08:13:57;101177.50;;;7.09;100.00
13068;BME280;6600;51.362;6.686;2023-12-20T08:16:22;101183.19;;;7.06;100.00
13068;BME280;6600;51.362;6.686;2023-12-20T08:18:47;101168.19;;;7.05;100.00
13068;BME280;6600;51.362;6.686;2023-12-20T08:21:13;101170.50;;;7.08;100.00
13068;BME280;6600;51.362;6.686;2023-12-20T08:23:38;101165.63;;;7.11;100.00
13068;BME280;6600;51.362;6.686;2023-12-20T08:26:07;101178.31;;;7.09;100.00
13068;BME280;6600;51.362;6.686;2023-12-20T08:28:33;101175.81;;;7.08;100.00
13068;BME280;6600;51.362;6.686;2023-12-20T08:30:59;101179.84;;;7.04;100.00
13068;BME280;6600;51.362;6.686;2023-12-20T08:33:25;101176.19;;;7.05;100.00
13068;BME280;6600;51.362;6.686;2023-12-20T08:35:50;101190.16;;;7.07;100.00
13068;BME280;6600;51.362;6.686;2023-12-20T08:38:15;101193.84;;;7.06;100.00
13068;BME280;6600;51.362;6.686;2023-12-20T08:40:42;101196.50;;;7.06;100.00
13068;BME280;6600;51.362;6.686;2023-12-20T08:43:08;101200.00;;;7.06;100.00
13068;BME280;6600;51.362;6.686;2023-12-20T08:45:33;101197.81;;;7.10;100.00
13068;BME280;6600;51.362;6.686;2023-12-20T08:47:59;101198.81;;;7.09;100.00
13068;BME280;6600;51.362;6.686;2023-12-20T08:50:25;101189.81;;;7.10;100.00
13068;BME280;6600;51.362;6.686;2023-12-20T08:52:50;101189.16;;;7.08;100.00
13068;BME280;6600;51.362;6.686;2023-12-20T08:55:16;101189.81;;;7.10;100.00
13068;BME280;6600;51.362;6.686;2023-12-20T08:57:43;101184.13;;;7.13;100.00
13068;BME280;6600;51.362;6.686;2023-12-20T09:00:09;101179.72;;;7.20;100.00
13068;BME280;6600;51.362;6.686;2023-12-20T09:02:34;101180.53;;;7.21;100.00
13068;BME280;6600;51.362;6.686;2023-12-20T09:05:04;101161.69;;;7.22;100.00
13068;BME280;6600;51.362;6.686;2023-12-20T09:07:29;101160.50;;;7.25;100.00
13068;BME280;6600;51.362;6.686;2023-12-20T09:09:57;101160.97;;;7.28;100.00
13068;BME280;6600;51.362;6.686;2023-12-20T09:12:22;101170.06;;;7.34;100.00
13068;BME280;6600;51.362;6.686;2023-12-20T09:14:49;101166.94;;;7.30;100.00
13068;BME280;6600;51.362;6.686;2023-12-20T09:17:15;101167.59;;;7.32;100.00
13068;BME280;6600;51.362;6.686;2023-12-20T09:19:41;101176.59;;;7.31;100.00
13068;BME280;6600;51.362;6.686;2023-12-20T09:22:09;101177.50;;;7.38;100.00
13068;BME280;6600;51.362;6.686;2023-12-20T09:24:34;101176.25;;;7.34;100.00
13068;BME280;6600;51.362;6.686;2023-12-20T09:26:59;101165.22;;;7.37;100.00
13068;BME280;6600;51.362;6.686;2023-12-20T09:29:25;101171.34;;;7.38;100.00
13068;BME280;6600;51.362;6.686;2023-12-20T09:31:50;101170.53;;;7.37;100.00
13068;BME280;6600;51.362;6.686;2023-12-20T09:34:16;101159.13;;;7.43;100.00
13068;BME280;6600;51.362;6.686;2023-12-20T09:36:42;101164.47;;;7.43;100.00
13068;BME280;6600;51.362;6.686;2023-12-20T09:39:14;101172.56;;;7.50;100.00
13068;BME280;6600;51.362;6.686;2023-12-20T09:41:44;101160.81;;;7.44;100.00
13068;BME280;6600;51.362;6.686;2023-12-20T09:44:15;101170.72;;;7.50;100.00
13068;BME280;6600;51.362;6.686;2023-12-20T09:46:43;101169.50;;;7.53;100.00
13068;BME280;6600;51.362;6.686;2023-12-20T09:49:08;101183.06;;;7.51;100.00
13068;BME280;6600;51.362;6.686;2023-12-20T09:51:34;101165.47;;;7.57;100.00
13068;BME280;6600;51.362;6.686;2023-12-20T09:54:01;101173.47;;;7.57;100.00
13068;BME280;6600;51.362;6.686;2023-12-20T09:56:28;101178.97;;;7.55;100.00
13068;BME280;6600;51.362;6.686;2023-12-20T09:58:54;101175.69;;;7.53;100.00
13068;BME280;6600;51.362;6.686;2023-12-20T10:01:19;101180.25;;;7.59;100.00
13068;BME280;6600;51.362;6.686;2023-12-20T10:03:46;101167.94;;;7.58;100.00
13068;BME280;6600;51.362;6.686;2023-12-20T10:06:12;101165.94;;;7.60;100.00
13068;BME280;6600;51.362;6.686;2023-12-20T10:08:38;101170.44;;;7.60;100.00
13068;BME280;6600;51.362;6.686;2023-12-20T10:11:03;101169.81;;;7.58;100.00
13068;BME280;6600;51.362;6.686;2023-12-20T10:13:29;101162.06;;;7.63;100.00
13068;BME280;6600;51.362;6.686;2023-12-20T10:15:55;101166.47;;;7.71;100.00
13068;BME280;6600;51.362;6.686;2023-12-20T10:18:21;101170.81;;;7.72;100.00
13068;BME280;6600;51.362;6.686;2023-12-20T10:20:46;101166.84;;;7.68;100.00
13068;BME280;6600;51.362;6.686;2023-12-20T10:23:12;101172.19;;;7.68;100.00
13068;BME280;6600;51.362;6.686;2023-12-20T10:25:39;101158.28;;;7.72;100.00
13068;BME280;6600;51.362;6.686;2023-12-20T10:28:15;101155.44;;;7.74;100.00
13068;BME280;6600;51.362;6.686;2023-12-20T10:30:44;101155.72;;;7.79;100.00
13068;BME280;6600;51.362;6.686;2023-12-20T10:33:09;101147.31;;;7.82;100.00
13068;BME280;6600;51.362;6.686;2023-12-20T10:35:38;101151.00;;;7.81;100.00
13068;BME280;6600;51.362;6.686;2023-12-20T10:38:05;101139.94;;;7.84;100.00
13068;BME280;6600;51.362;6.686;2023-12-20T10:40:34;101145.28;;;7.84;100.00
13068;BME280;6600;51.362;6.686;2023-12-20T10:43:00;101130.19;;;7.91;100.00
13068;BME280;6600;51.362;6.686;2023-12-20T10:45:27;101137.56;;;7.89;100.00
13068;BME280;6600;51.362;6.686;2023-12-20T10:47:52;101130.13;;;7.84;100.00
13068;BME280;6600;51.362;6.686;2023-12-20T10:50:19;101135.91;;;7.88;100.00
13068;BME280;6600;51.362;6.686;2023-12-20T10:52:46;101141.13;;;7.96;100.00
13068;BME280;6600;51.362;6.686;2023-12-20T10:55:12;101135.53;;;7.91;100.00
13068;BME280;6600;51.362;6.686;2023-12-20T10:57:38;101149.53;;;7.93;100.00
13068;BME280;6600;51.362;6.686;2023-12-20T11:00:06;101140.03;;;7.90;100.00
13068;BME280;6600;51.362;6.686;2023-12-20T11:02:37;101149.13;;;7.96;100.00
13068;BME280;6600;51.362;6.686;2023-12-20T11:05:22;101149.53;;;7.93;100.00
13068;BME280;6600;51.362;6.686;2023-12-20T11:08:06;101138.47;;;7.96;100.00
13068;BME280;6600;51.362;6.686;2023-12-20T11:11:03;101136.91;;;7.87;100.00
13068;BME280;6600;51.362;6.686;2023-12-20T11:13:37;101135.91;;;7.88;100.00
13068;BME280;6600;51.362;6.686;2023-12-20T11:16:04;101139.56;;;7.87;100.00
13068;BME280;6600;51.362;6.686;2023-12-20T11:18:30;101119.88;;;7.88;100.00
13068;BME280;6600;51.362;6.686;2023-12-20T11:21:01;101121.19;;;7.92;100.00
13068;BME280;6600;51.362;6.686;2023-12-20T11:23:29;101120.41;;;7.98;100.00
13068;BME280;6600;51.362;6.686;2023-12-20T11:25:56;101124.38;;;8.02;100.00
13068;BME280;6600;51.362;6.686;2023-12-20T11:28:24;101105.94;;;8.07;100.00
13068;BME280;6600;51.362;6.686;2023-12-20T11:30:54;101117.63;;;8.06;100.00
13068;BME280;6600;51.362;6.686;2023-12-20T11:33:24;101115.66;;;8.14;100.00
13068;BME280;6600;51.362;6.686;2023-12-20T11:35:50;101116.81;;;8.27;100.00
13068;BME280;6600;51.362;6.686;2023-12-20T11:38:16;101106.09;;;8.20;100.00
13068;BME280;6600;51.362;6.686;2023-12-20T11:40:42;101105.59;;;8.31;100.00
13068;BME280;6600;51.362;6.686;2023-12-20T11:43:08;101104.63;;;8.39;100.00
13068;BME280;6600;51.362;6.686;2023-12-20T11:45:34;101102.78;;;8.39;100.00
13068;BME280;6600;51.362;6.686;2023-12-20T11:48:02;101106.47;;;8.38;100.00
13068;BME280;6600;51.362;6.686;2023-12-20T11:50:28;101098.22;;;8.33;100.00
13068;BME280;6600;51.362;6.686;2023-12-20T11:52:55;101107.53;;;8.23;100.00
13068;BME280;6600;51.362;6.686;2023-12-20T11:55:21;101108.75;;;8.20;100.00
13068;BME280;6600;51.362;6.686;2023-12-20T11:57:47;101102.19;;;8.23;100.00
13068;BME280;6600;51.362;6.686;2023-12-20T12:00:14;101096.41;;;8.19;100.00
13068;BME280;6600;51.362;6.686;2023-12-20T12:02:40;101094.63;;;8.05;100.00
13068;BME280;6600;51.362;6.686;2023-12-20T12:05:06;101086.91;;;8.10;100.00
13068;BME280;6600;51.362;6.686;2023-12-20T12:07:32;101092.97;;;8.04;100.00
13068;BME280;6600;51.362;6.686;2023-12-20T12:09:57;101105.63;;;7.95;100.00
13068;BME280;6600;51.362;6.686;2023-12-20T12:12:23;101096.16;;;7.93;100.00
13068;BME280;6600;51.362;6.686;2023-12-20T12:14:50;101089.16;;;7.92;100.00
13068;BME280;6600;51.362;6.686;2023-12-20T12:17:16;101089.78;;;7.94;100.00
13068;BME280;6600;51.362;6.686;2023-12-20T12:19:41;101083.38;;;7.88;100.00
13068;BME280;6600;51.362;6.686;2023-12-20T12:22:08;101075.53;;;7.87;100.00
13068;BME280;6600;51.362;6.686;2023-12-20T12:24:45;101077.59;;;7.85;100.00
13068;BME280;6600;51.362;6.686;2023-12-20T12:27:12;101074.25;;;7.83;100.00
13068;BME280;6600;51.362;6.686;2023-12-20T12:29:37;101070.59;;;7.84;100.00
13068;BME280;6600;51.362;6.686;2023-12-20T12:32:07;101090.53;;;7.88;100.00
13068;BME280;6600;51.362;6.686;2023-12-20T12:34:33;101076.19;;;7.89;100.00
13068;BME280;6600;51.362;6.686;2023-12-20T12:37:03;101081.59;;;7.95;100.00
13068;BME280;6600;51.362;6.686;2023-12-20T12:39:29;101078.09;;;7.95;100.00
13068;BME280;6600;51.362;6.686;2023-12-20T12:41:55;101078.09;;;7.95;100.00
13068;BME280;6600;51.362;6.686;2023-12-20T12:44:20;101070.47;;;7.92;100.00
13068;BME280;6600;51.362;6.686;2023-12-20T12:46:48;101063.69;;;7.89;100.00
13068;BME280;6600;51.362;6.686;2023-12-20T12:49:16;101069.81;;;7.90;100.00
13068;BME280;6600;51.362;6.686;2023-12-20T12:51:42;101056.88;;;7.87;100.00
13068;BME280;6600;51.362;6.686;2023-12-20T12:54:08;101052.91;;;7.83;100.00